sensor_id;sensor_type;location;lat;lon;timestamp;P1;P2;P0
12542;PMS3003;6337;49.556;25.594;2023-01-15T00:01:23;69.13;17.50;
12542;PMS3003;6337;49.556;25.594;2023-01-15T00:04:02;81.87;21.10;
12542;PMS3003;6337;49.556;25.594;2023-01-15T00:06:34;82.75;29.10;
12542;PMS3003;6337;49.556;25.594;2023-01-15T00:09:02;77.55;22.38;
12542;PMS3003;6337;49.556;25.594;2023-01-15T00:11:31;150.60;29.48;
12542;PMS3003;6337;49.556;25.594;2023-01-15T00:13:59;130.00;34.88;
12542;PMS3003;6337;49.556;25.594;2023-01-15T00:16:29;89.53;25.05;
12542;PMS3003;6337;49.556;25.594;2023-01-15T00:19:01;47.65;20.70;
12542;PMS3003;6337;49.556;25.594;2023-01-15T00:21:32;80.95;15.00;
12542;PMS3003;6337;49.556;25.594;2023-01-15T00:23:59;30.17;15.73;
12542;PMS3003;6337;49.556;25.594;2023-01-15T00:26:44;69.13;16.42;
12542;PMS3003;6337;49.556;25.594;2023-01-15T00:29:30;62.95;13.43;
12542;PMS3003;6337;49.556;25.594;2023-01-15T00:31:59;65.73;15.97;
12542;PMS3003;6337;49.556;25.594;2023-01-15T00:34:32;43.08;19.45;
12542;PMS3003;6337;49.556;25.594;2023-01-15T00:39:44;89.07;13.93;
12542;PMS3003;6337;49.556;25.594;2023-01-15T00:42:12;73.63;18.45;
12542;PMS3003;6337;49.556;25.594;2023-01-15T00:44:47;118.63;16.77;
12542;PMS3003;6337;49.556;25.594;2023-01-15T00:47:15;33.08;15.43;
12542;PMS3003;6337;49.556;25.594;2023-01-15T00:49:44;54.03;18.60;
12542;PMS3003;6337;49.556;25.594;2023-01-15T00:52:11;38.85;18.02;
12542;PMS3003;6337;49.556;25.594;2023-01-15T00:54:39;92.30;20.37;
12542;PMS3003;6337;49.556;25.594;2023-01-15T00:57:07;75.90;16.75;
12542;PMS3003;6337;49.556;25.594;2023-01-15T00:59:35;51.80;15.82;
12542;PMS3003;6337;49.556;25.594;2023-01-15T01:02:03;60.78;14.30;
12542;PMS3003;6337;49.556;25.594;2023-01-15T01:04:31;83.80;14.80;
12542;PMS3003;6337;49.556;25.594;2023-01-15T04:05:12;22.50;10.23;
12542;PMS3003;6337;49.556;25.594;2023-01-15T04:07:41;54.17;10.65;
12542;PMS3003;6337;49.556;25.594;2023-01-15T04:10:09;49.55;10.52;
12542;PMS3003;6337;49.556;25.594;2023-01-15T04:12:38;25.75;9.73;
12542;PMS3003;6337;49.556;25.594;2023-01-15T04:15:06;33.88;11.02;
12542;PMS3003;6337;49.556;25.594;2023-01-15T04:17:35;38.33;10.73;
12542;PMS3003;6337;49.556;25.594;2023-01-15T04:20:05;31.73;9.57;
12542;PMS3003;6337;49.556;25.594;2023-01-15T04:22:35;33.97;10.65;
12542;PMS3003;6337;49.556;25.594;2023-01-15T04:25:02;47.17;9.60;
12542;PMS3003;6337;49.556;25.594;2023-01-15T04:27:30;29.35;10.48;
12542;PMS3003;6337;49.556;25.594;2023-01-15T04:29:58;24.05;10.73;
12542;PMS3003;6337;49.556;25.594;2023-01-15T04:32:29;22.90;9.40;
12542;PMS3003;6337;49.556;25.594;2023-01-15T04:35:00;24.60;13.45;
12542;PMS3003;6337;49.556;25.594;2023-01-15T04:37:31;16.77;9.23;
12542;PMS3003;6337;49.556;25.594;2023-01-15T04:40:09;19.52;9.80;
12542;PMS3003;6337;49.556;25.594;2023-01-15T04:42:59;18.88;9.18;
12542;PMS3003;6337;49.556;25.594;2023-01-15T04:45:44;23.15;10.57;
12542;PMS3003;6337;49.556;25.594;2023-01-15T04:48:13;28.05;10.57;
12542;PMS3003;6337;49.556;25.594;2023-01-15T04:50:41;16.05;8.95;
12542;PMS3003;6337;49.556;25.594;2023-01-15T04:53:12;35.50;10.80;
12542;PMS3003;6337;49.556;25.594;2023-01-15T04:55:41;29.77;11.70;
12542;PMS3003;6337;49.556;25.594;2023-01-15T04:58:11;36.25;16.20;
12542;PMS3003;6337;49.556;25.594;2023-01-15T05:00:42;21.00;12.98;
12542;PMS3003;6337;49.556;25.594;2023-01-15T05:03:09;23.25;10.55;
12542;PMS3003;6337;49.556;25.594;2023-01-15T05:05:39;22.52;11.25;
12542;PMS3003;6337;49.556;25.594;2023-01-15T05:08:07;20.75;11.85;
12542;PMS3003;6337;49.556;25.594;2023-01-15T05:10:34;25.08;11.43;
12542;PMS3003;6337;49.556;25.594;2023-01-15T05:13:04;20.88;11.07;
12542;PMS3003;6337;49.556;25.594;2023-01-15T05:15:31;18.77;10.35;
12542;PMS3003;6337;49.556;25.594;2023-01-15T05:17:59;26.63;14.57;
12542;PMS3003;6337;49.556;25.594;2023-01-15T05:20:27;30.42;15.05;
12542;PMS3003;6337;49.556;25.594;2023-01-15T05:22:54;26.45;14.40;
12542;PMS3003;6337;49.556;25.594;2023-01-15T05:25:22;28.38;12.50;
12542;PMS3003;6337;49.556;25.594;2023-01-15T05:27:49;22.83;12.52;
12542;PMS3003;6337;49.556;25.594;2023-01-15T05:30:19;29.17;12.88;
12542;PMS3003;6337;49.556;25.594;2023-01-15T05:32:46;25.88;11.63;
12542;PMS3003;6337;49.556;25.594;2023-01-15T05:35:14;21.00;11.45;
12542;PMS3003;6337;49.556;25.594;2023-01-15T05:37:42;27.75;14.60;
12542;PMS3003;6337;49.556;25.594;2023-01-15T05:40:10;37.50;16.75;
12542;PMS3003;6337;49.556;25.594;2023-01-15T05:42:38;25.60;12.00;
12542;PMS3003;6337;49.556;25.594;2023-01-15T05:45:07;33.22;11.93;
12542;PMS3003;6337;49.556;25.594;2023-01-15T05:47:36;29.80;12.52;
12542;PMS3003;6337;49.556;25.594;2023-01-15T05:50:04;23.45;13.23;
12542;PMS3003;6337;49.556;25.594;2023-01-15T05:52:35;37.70;13.07;
12542;PMS3003;6337;49.556;25.594;2023-01-15T05:55:03;25.58;12.50;
12542;PMS3003;6337;49.556;25.594;2023-01-15T05:57:30;32.28;13.82;
12542;PMS3003;6337;49.556;25.594;2023-01-15T05:59:59;36.80;15.63;
12542;PMS3003;6337;49.556;25.594;2023-01-15T06:02:28;33.53;15.88;
12542;PMS3003;6337;49.556;25.594;2023-01-15T06:04:59;39.90;16.05;
12542;PMS3003;6337;49.556;25.594;2023-01-15T06:07:27;36.20;16.23;
12542;PMS3003;6337;49.556;25.594;2023-01-15T06:09:55;28.75;14.10;
12542;PMS3003;6337;49.556;25.594;2023-01-15T06:12:23;29.65;13.85;
12542;PMS3003;6337;49.556;25.594;2023-01-15T06:14:58;30.27;13.90;
12542;PMS3003;6337;49.556;25.594;2023-01-15T06:17:25;33.40;14.90;
12542;PMS3003;6337;49.556;25.594;2023-01-15T06:19:53;51.50;18.73;
12542;PMS3003;6337;49.556;25.594;2023-01-15T06:22:22;61.05;18.17;
12542;PMS3003;6337;49.556;25.594;2023-01-15T06:24:50;40.03;17.48;
12542;PMS3003;6337;49.556;25.594;2023-01-15T06:27:19;32.00;16.75;
12542;PMS3003;6337;49.556;25.594;2023-01-15T06:29:47;34.83;15.95;
12542;PMS3003;6337;49.556;25.594;2023-01-15T06:32:14;38.75;16.85;
12542;PMS3003;6337;49.556;25.594;2023-01-15T06:34:42;39.88;20.42;
12542;PMS3003;6337;49.556;25.594;2023-01-15T06:37:10;28.98;15.27;
12542;PMS3003;6337;49.556;25.594;2023-01-15T06:39:41;42.25;15.98;
12542;PMS3003;6337;49.556;25.594;2023-01-15T06:42:09;31.58;14.98;
12542;PMS3003;6337;49.556;25.594;2023-01-15T06:44:54;22.70;12.35;
12542;PMS3003;6337;49.556;25.594;2023-01-15T06:47:39;20.48;11.57;
12542;PMS3003;6337;49.556;25.594;2023-01-15T06:50:07;18.15;11.85;
12542;PMS3003;6337;49.556;25.594;2023-01-15T06:52:37;31.88;12.90;
12542;PMS3003;6337;49.556;25.594;2023-01-15T06:55:08;30.75;14.20;
12542;PMS3003;6337;49.556;25.594;2023-01-15T06:57:37;39.08;15.52;
12542;PMS3003;6337;49.556;25.594;2023-01-15T07:00:05;32.67;13.85;
12542;PMS3003;6337;49.556;25.594;2023-01-15T07:02:35;40.60;14.43;
12542;PMS3003;6337;49.556;25.594;2023-01-15T07:05:03;31.45;15.63;
12542;PMS3003;6337;49.556;25.594;2023-01-15T07:07:32;22.20;13.95;
12542;PMS3003;6337;49.556;25.594;2023-01-15T07:10:00;30.48;15.50;
12542;PMS3003;6337;49.556;25.594;2023-01-15T07:12:30;29.77;14.85;
12542;PMS3003;6337;49.556;25.594;2023-01-15T07:14:57;34.88;16.23;
12542;PMS3003;6337;49.556;25.594;2023-01-15T07:17:26;34.92;14.27;
12542;PMS3003;6337;49.556;25.594;2023-01-15T07:19:53;33.03;14.10;
12542;PMS3003;6337;49.556;25.594;2023-01-15T07:22:24;38.03;13.18;
12542;PMS3003;6337;49.556;25.594;2023-01-15T07:24:52;26.13;12.38;
12542;PMS3003;6337;49.556;25.594;2023-01-15T07:27:19;29.23;12.90;
12542;PMS3003;6337;49.556;25.594;2023-01-15T07:29:49;36.13;14.32;
12542;PMS3003;6337;49.556;25.594;2023-01-15T07:32:16;29.27;13.35;
12542;PMS3003;6337;49.556;25.594;2023-01-15T07:34:45;61.13;16.00;
12542;PMS3003;6337;49.556;25.594;2023-01-15T07:37:26;27.30;9.65;
12542;PMS3003;6337;49.556;25.594;2023-01-15T07:39:54;24.45;11.45;
12542;PMS3003;6337;49.556;25.594;2023-01-15T07:42:25;22.80;10.20;
12542;PMS3003;6337;49.556;25.594;2023-01-15T07:45:12;25.60;11.35;
12542;PMS3003;6337;49.556;25.594;2023-01-15T07:47:57;30.75;12.55;
12542;PMS3003;6337;49.556;25.594;2023-01-15T07:50:44;21.90;11.60;
12542;PMS3003;6337;49.556;25.594;2023-01-15T07:53:12;26.88;13.07;
12542;PMS3003;6337;49.556;25.594;2023-01-15T07:55:40;23.15;10.98;
12542;PMS3003;6337;49.556;25.594;2023-01-15T07:58:11;15.52;9.55;
12542;PMS3003;6337;49.556;25.594;2023-01-15T08:00:46;17.23;10.65;
12542;PMS3003;6337;49.556;25.594;2023-01-15T08:03:13;36.03;13.07;
12542;PMS3003;6337;49.556;25.594;2023-01-15T08:05:42;24.83;12.00;
12542;PMS3003;6337;49.556;25.594;2023-01-15T08:08:13;24.65;11.32;
12542;PMS3003;6337;49.556;25.594;2023-01-15T08:10:42;24.67;11.40;
12542;PMS3003;6337;49.556;25.594;2023-01-15T08:13:24;25.70;10.88;
12542;PMS3003;6337;49.556;25.594;2023-01-15T08:16:18;22.95;11.00;
12542;PMS3003;6337;49.556;25.594;2023-01-15T08:18:49;23.20;10.60;
12542;PMS3003;6337;49.556;25.594;2023-01-15T08:21:17;19.80;9.73;
12542;PMS3003;6337;49.556;25.594;2023-01-15T08:23:45;34.92;12.20;
12542;PMS3003;6337;49.556;25.594;2023-01-15T08:26:14;17.38;9.50;
12542;PMS3003;6337;49.556;25.594;2023-01-15T08:28:43;20.95;9.90;
12542;PMS3003;6337;49.556;25.594;2023-01-15T08:31:12;19.73;9.75;
12542;PMS3003;6337;49.556;25.594;2023-01-15T08:33:42;29.10;9.73;
12542;PMS3003;6337;49.556;25.594;2023-01-15T08:36:10;22.60;11.07;
12542;PMS3003;6337;49.556;25.594;2023-01-15T08:38:41;22.85;12.70;
12542;PMS3003;6337;49.556;25.594;2023-01-15T08:41:12;20.65;10.70;
12542;PMS3003;6337;49.556;25.594;2023-01-15T08:43:40;29.50;12.02;
12542;PMS3003;6337;49.556;25.594;2023-01-15T08:46:11;19.67;11.10;
12542;PMS3003;6337;49.556;25.594;2023-01-15T08:48:39;19.88;11.18;
12542;PMS3003;6337;49.556;25.594;2023-01-15T08:51:09;22.65;10.38;
12542;PMS3003;6337;49.556;25.594;2023-01-15T08:53:39;13.77;9.00;
12542;PMS3003;6337;49.556;25.594;2023-01-15T08:56:10;16.08;9.63;
12542;PMS3003;6337;49.556;25.594;2023-01-15T08:58:43;22.27;11.68;
12542;PMS3003;6337;49.556;25.594;2023-01-15T09:01:13;17.27;8.82;
12542;PMS3003;6337;49.556;25.594;2023-01-15T09:03:41;19.65;10.45;
12542;PMS3003;6337;49.556;25.594;2023-01-15T09:06:11;11.23;7.47;
12542;PMS3003;6337;49.556;25.594;2023-01-15T09:08:39;16.67;7.43;
12542;PMS3003;6337;49.556;25.594;2023-01-15T09:11:09;13.55;9.13;
12542;PMS3003;6337;49.556;25.594;2023-01-15T09:13:37;23.25;8.85;
12542;PMS3003;6337;49.556;25.594;2023-01-15T09:16:05;13.73;10.40;
12542;PMS3003;6337;49.556;25.594;2023-01-15T09:18:36;11.98;7.35;
12542;PMS3003;6337;49.556;25.594;2023-01-15T09:21:05;22.92;11.52;
12542;PMS3003;6337;49.556;25.594;2023-01-15T09:23:36;13.63;8.30;
12542;PMS3003;6337;49.556;25.594;2023-01-15T09:26:05;13.10;8.85;
12542;PMS3003;6337;49.556;25.594;2023-01-15T09:28:35;16.48;9.82;
12542;PMS3003;6337;49.556;25.594;2023-01-15T09:31:03;15.07;9.25;
12542;PMS3003;6337;49.556;25.594;2023-01-15T09:33:31;15.10;10.82;
12542;PMS3003;6337;49.556;25.594;2023-01-15T09:36:00;18.92;10.02;
12542;PMS3003;6337;49.556;25.594;2023-01-15T09:38:42;16.42;11.57;
12542;PMS3003;6337;49.556;25.594;2023-01-15T09:41:13;17.08;11.20;
12542;PMS3003;6337;49.556;25.594;2023-01-15T09:43:58;19.17;11.73;
12542;PMS3003;6337;49.556;25.594;2023-01-15T09:46:34;14.48;8.40;
12542;PMS3003;6337;49.556;25.594;2023-01-15T09:49:22;12.82;6.97;
12542;PMS3003;6337;49.556;25.594;2023-01-15T09:52:00;15.02;8.10;
12542;PMS3003;6337;49.556;25.594;2023-01-15T09:57:18;12.43;7.38;
12542;PMS3003;6337;49.556;25.594;2023-01-15T09:59:49;17.63;8.43;
12542;PMS3003;6337;49.556;25.594;2023-01-15T10:02:33;12.50;8.30;
12542;PMS3003;6337;49.556;25.594;2023-01-15T10:05:06;12.18;8.18;
12542;PMS3003;6337;49.556;25.594;2023-01-15T13:04:33;14.03;8.90;
12542;PMS3003;6337;49.556;25.594;2023-01-15T13:07:04;9.13;6.20;
12542;PMS3003;6337;49.556;25.594;2023-01-15T13:09:36;10.10;8.77;
12542;PMS3003;6337;49.556;25.594;2023-01-15T13:12:09;15.93;9.23;
12542;PMS3003;6337;49.556;25.594;2023-01-15T13:14:40;23.92;10.10;
12542;PMS3003;6337;49.556;25.594;2023-01-15T13:17:10;16.45;8.90;
12542;PMS3003;6337;49.556;25.594;2023-01-15T13:19:47;13.65;8.00;
12542;PMS3003;6337;49.556;25.594;2023-01-15T13:22:21;13.82;8.18;
12542;PMS3003;6337;49.556;25.594;2023-01-15T13:25:04;13.35;7.70;
12542;PMS3003;6337;49.556;25.594;2023-01-15T13:27:40;14.18;8.05;
12542;PMS3003;6337;49.556;25.594;2023-01-15T13:30:16;20.75;10.00;
12542;PMS3003;6337;49.556;25.594;2023-01-15T13:32:51;14.65;10.25;
12542;PMS3003;6337;49.556;25.594;2023-01-15T13:35:26;12.77;8.45;
12542;PMS3003;6337;49.556;25.594;2023-01-15T13:37:55;20.13;12.40;
12542;PMS3003;6337;49.556;25.594;2023-01-15T13:40:25;12.20;7.57;
12542;PMS3003;6337;49.556;25.594;2023-01-15T13:42:58;16.00;8.57;
12542;PMS3003;6337;49.556;25.594;2023-01-15T13:45:32;15.05;8.30;
12542;PMS3003;6337;49.556;25.594;2023-01-15T13:48:02;20.23;8.15;
12542;PMS3003;6337;49.556;25.594;2023-01-15T13:50:34;13.25;7.53;
12542;PMS3003;6337;49.556;25.594;2023-01-15T13:53:07;10.10;7.95;
12542;PMS3003;6337;49.556;25.594;2023-01-15T13:55:40;15.68;9.55;
12542;PMS3003;6337;49.556;25.594;2023-01-15T14:01:20;18.08;11.23;
12542;PMS3003;6337;49.556;25.594;2023-01-15T14:03:58;18.00;12.38;
12542;PMS3003;6337;49.556;25.594;2023-01-15T14:06:38;15.77;10.02;
12542;PMS3003;6337;49.556;25.594;2023-01-15T14:09:09;14.80;8.45;
12542;PMS3003;6337;49.556;25.594;2023-01-15T14:11:38;19.05;8.73;
12542;PMS3003;6337;49.556;25.594;2023-01-15T14:14:21;12.57;7.15;
12542;PMS3003;6337;49.556;25.594;2023-01-15T14:16:57;15.23;8.40;
12542;PMS3003;6337;49.556;25.594;2023-01-15T14:22:23;14.55;7.50;
12542;PMS3003;6337;49.556;25.594;2023-01-15T14:25:01;9.88;7.60;
12542;PMS3003;6337;49.556;25.594;2023-01-15T14:27:47;8.10;6.38;
12542;PMS3003;6337;49.556;25.594;2023-01-15T14:30:23;11.05;9.23;
12542;PMS3003;6337;49.556;25.594;2023-01-15T14:32:58;13.20;8.38;
12542;PMS3003;6337;49.556;25.594;2023-01-15T14:35:33;12.70;7.72;
12542;PMS3003;6337;49.556;25.594;2023-01-15T14:38:04;16.20;8.95;
12542;PMS3003;6337;49.556;25.594;2023-01-15T14:40:34;15.55;10.98;
12542;PMS3003;6337;49.556;25.594;2023-01-15T14:43:07;22.45;7.85;
12542;PMS3003;6337;49.556;25.594;2023-01-15T14:45:38;20.75;8.30;
12542;PMS3003;6337;49.556;25.594;2023-01-15T14:48:15;10.82;8.40;
12542;PMS3003;6337;49.556;25.594;2023-01-15T14:50:50;15.13;8.98;
12542;PMS3003;6337;49.556;25.594;2023-01-15T14:59:12;33.92;8.95;
12542;PMS3003;6337;49.556;25.594;2023-01-15T15:01:43;13.23;9.27;
12542;PMS3003;6337;49.556;25.594;2023-01-15T15:04:12;22.77;10.20;
12542;PMS3003;6337;49.556;25.594;2023-01-15T15:06:44;8.75;7.50;
12542;PMS3003;6337;49.556;25.594;2023-01-15T15:09:13;14.75;9.25;
12542;PMS3003;6337;49.556;25.594;2023-01-15T15:11:44;15.43;8.48;
12542;PMS3003;6337;49.556;25.594;2023-01-15T15:14:31;25.10;14.85;
12542;PMS3003;6337;49.556;25.594;2023-01-15T15:17:03;31.63;9.82;
12542;PMS3003;6337;49.556;25.594;2023-01-15T15:19:41;15.00;9.82;
12542;PMS3003;6337;49.556;25.594;2023-01-15T15:22:13;23.33;9.88;
12542;PMS3003;6337;49.556;25.594;2023-01-15T15:24:50;14.55;8.35;
12542;PMS3003;6337;49.556;25.594;2023-01-15T15:27:21;16.05;8.90;
12542;PMS3003;6337;49.556;25.594;2023-01-15T15:29:56;12.35;8.15;
12542;PMS3003;6337;49.556;25.594;2023-01-15T15:32:29;10.90;8.45;
12542;PMS3003;6337;49.556;25.594;2023-01-15T15:35:02;13.07;8.20;
12542;PMS3003;6337;49.556;25.594;2023-01-15T15:37:29;14.35;9.52;
12542;PMS3003;6337;49.556;25.594;2023-01-15T15:40:13;18.50;9.88;
12542;PMS3003;6337;49.556;25.594;2023-01-15T15:42:52;12.30;8.52;
12542;PMS3003;6337;49.556;25.594;2023-01-15T15:48:55;18.17;9.00;
12542;PMS3003;6337;49.556;25.594;2023-01-15T15:51:29;13.32;8.32;
12542;PMS3003;6337;49.556;25.594;2023-01-15T15:54:05;10.57;8.18;
12542;PMS3003;6337;49.556;25.594;2023-01-15T15:59:28;13.40;9.50;
12542;PMS3003;6337;49.556;25.594;2023-01-15T16:01:57;18.23;7.53;
12542;PMS3003;6337;49.556;25.594;2023-01-15T16:04:33;10.93;8.55;
12542;PMS3003;6337;49.556;25.594;2023-01-15T16:07:10;10.50;7.30;
12542;PMS3003;6337;49.556;25.594;2023-01-15T16:09:38;14.68;8.25;
12542;PMS3003;6337;49.556;25.594;2023-01-15T16:12:07;15.68;8.88;
12542;PMS3003;6337;49.556;25.594;2023-01-15T16:14:37;13.15;7.85;
12542;PMS3003;6337;49.556;25.594;2023-01-15T16:17:05;8.95;6.35;
12542;PMS3003;6337;49.556;25.594;2023-01-15T16:19:34;8.02;6.43;
12542;PMS3003;6337;49.556;25.594;2023-01-15T16:22:04;9.35;7.05;
12542;PMS3003;6337;49.556;25.594;2023-01-15T16:24:36;9.73;6.57;
12542;PMS3003;6337;49.556;25.594;2023-01-15T16:27:05;9.85;7.38;
12542;PMS3003;6337;49.556;25.594;2023-01-15T16:29:35;14.05;7.97;
12542;PMS3003;6337;49.556;25.594;2023-01-15T16:32:08;9.35;8.38;
12542;PMS3003;6337;49.556;25.594;2023-01-15T16:34:42;14.73;8.45;
12542;PMS3003;6337;49.556;25.594;2023-01-15T16:37:15;9.95;6.55;
12542;PMS3003;6337;49.556;25.594;2023-01-15T16:39:55;12.98;7.25;
12542;PMS3003;6337;49.556;25.594;2023-01-15T16:42:25;11.18;7.05;
12542;PMS3003;6337;49.556;25.594;2023-01-15T16:44:56;16.92;9.13;
12542;PMS3003;6337;49.556;25.594;2023-01-15T16:47:28;19.02;9.57;
12542;PMS3003;6337;49.556;25.594;2023-01-15T16:58:35;13.00;7.75;
12542;PMS3003;6337;49.556;25.594;2023-01-15T17:01:22;13.23;8.60;
12542;PMS3003;6337;49.556;25.594;2023-01-15T17:03:51;14.40;7.68;
12542;PMS3003;6337;49.556;25.594;2023-01-15T17:06:21;24.38;10.23;
12542;PMS3003;6337;49.556;25.594;2023-01-15T17:08:50;11.63;7.80;
12542;PMS3003;6337;49.556;25.594;2023-01-15T17:11:21;17.55;8.98;
12542;PMS3003;6337;49.556;25.594;2023-01-15T17:13:53;19.63;7.47;
12542;PMS3003;6337;49.556;25.594;2023-01-15T17:16:36;16.73;7.82;
12542;PMS3003;6337;49.556;25.594;2023-01-15T17:19:04;11.93;8.00;
12542;PMS3003;6337;49.556;25.594;2023-01-15T17:21:37;11.95;7.60;
12542;PMS3003;6337;49.556;25.594;2023-01-15T17:24:11;11.05;6.72;
12542;PMS3003;6337;49.556;25.594;2023-01-15T17:26:40;11.35;9.38;
12542;PMS3003;6337;49.556;25.594;2023-01-15T17:29:10;15.00;10.20;
12542;PMS3003;6337;49.556;25.594;2023-01-15T17:31:40;19.67;10.45;
12542;PMS3003;6337;49.556;25.594;2023-01-15T17:34:09;12.75;7.60;
12542;PMS3003;6337;49.556;25.594;2023-01-15T17:36:38;14.98;9.65;
12542;PMS3003;6337;49.556;25.594;2023-01-15T17:39:05;13.57;9.45;
12542;PMS3003;6337;49.556;25.594;2023-01-15T17:41:37;19.55;7.88;
12542;PMS3003;6337;49.556;25.594;2023-01-15T17:44:05;12.27;7.05;
12542;PMS3003;6337;49.556;25.594;2023-01-15T17:46:34;15.35;8.55;
12542;PMS3003;6337;49.556;25.594;2023-01-15T17:49:02;16.05;8.50;
12542;PMS3003;6337;49.556;25.594;2023-01-15T17:51:30;15.07;9.63;
12542;PMS3003;6337;49.556;25.594;2023-01-15T17:53:59;14.73;9.10;
12542;PMS3003;6337;49.556;25.594;2023-01-15T17:56:27;13.60;8.82;
12542;PMS3003;6337;49.556;25.594;2023-01-15T17:59:11;17.27;9.00;
12542;PMS3003;6337;49.556;25.594;2023-01-15T18:01:54;16.70;9.43;
12542;PMS3003;6337;49.556;25.594;2023-01-15T18:04:39;19.80;9.95;
12542;PMS3003;6337;49.556;25.594;2023-01-15T18:07:26;14.27;8.23;
12542;PMS3003;6337;49.556;25.594;2023-01-15T18:10:00;19.75;10.20;
12542;PMS3003;6337;49.556;25.594;2023-01-15T18:12:28;11.57;8.50;
12542;PMS3003;6337;49.556;25.594;2023-01-15T18:14:56;13.23;9.27;
12542;PMS3003;6337;49.556;25.594;2023-01-15T18:17:27;12.93;7.47;
12542;PMS3003;6337;49.556;25.594;2023-01-15T18:19:57;13.15;8.73;
12542;PMS3003;6337;49.556;25.594;2023-01-15T18:22:25;19.98;9.48;
12542;PMS3003;6337;49.556;25.594;2023-01-15T18:24:56;12.77;7.72;
12542;PMS3003;6337;49.556;25.594;2023-01-15T18:27:24;17.30;8.65;
12542;PMS3003;6337;49.556;25.594;2023-01-15T18:29:54;15.23;9.90;
12542;PMS3003;6337;49.556;25.594;2023-01-15T18:32:28;20.77;12.00;
12542;PMS3003;6337;49.556;25.594;2023-01-15T18:34:57;15.73;10.45;
12542;PMS3003;6337;49.556;25.594;2023-01-15T18:37:26;15.00;9.85;
12542;PMS3003;6337;49.556;25.594;2023-01-15T18:39:54;17.55;7.95;
12542;PMS3003;6337;49.556;25.594;2023-01-15T18:42:23;18.45;11.55;
12542;PMS3003;6337;49.556;25.594;2023-01-15T18:45:09;12.35;7.55;
12542;PMS3003;6337;49.556;25.594;2023-01-15T18:47:58;18.63;9.80;
12542;PMS3003;6337;49.556;25.594;2023-01-15T18:50:26;14.50;9.40;
12542;PMS3003;6337;49.556;25.594;2023-01-15T18:52:54;20.67;10.52;
12542;PMS3003;6337;49.556;25.594;2023-01-15T18:55:22;28.45;11.93;
12542;PMS3003;6337;49.556;25.594;2023-01-15T18:57:53;31.35;14.70;
12542;PMS3003;6337;49.556;25.594;2023-01-15T19:00:21;13.05;9.40;
12542;PMS3003;6337;49.556;25.594;2023-01-15T19:02:50;16.67;10.32;
12542;PMS3003;6337;49.556;25.594;2023-01-15T19:05:19;20.00;11.27;
12542;PMS3003;6337;49.556;25.594;2023-01-15T22:02:38;36.63;17.50;
12542;PMS3003;6337;49.556;25.594;2023-01-15T22:05:07;27.27;15.85;
12542;PMS3003;6337;49.556;25.594;2023-01-15T22:07:35;35.38;17.73;
12542;PMS3003;6337;49.556;25.594;2023-01-15T22:10:03;38.88;16.27;
12542;PMS3003;6337;49.556;25.594;2023-01-15T22:12:39;33.55;16.00;
12542;PMS3003;6337;49.556;25.594;2023-01-15T22:15:08;36.05;14.35;
12542;PMS3003;6337;49.556;25.594;2023-01-15T22:17:37;35.33;17.52;
12542;PMS3003;6337;49.556;25.594;2023-01-15T22:20:06;28.42;14.65;
12542;PMS3003;6337;49.556;25.594;2023-01-15T22:22:36;26.58;15.57;
12542;PMS3003;6337;49.556;25.594;2023-01-15T22:25:04;31.95;17.70;
12542;PMS3003;6337;49.556;25.594;2023-01-15T22:27:34;34.45;15.77;
12542;PMS3003;6337;49.556;25.594;2023-01-15T22:30:06;25.85;15.38;
12542;PMS3003;6337;49.556;25.594;2023-01-15T22:32:34;27.38;15.85;
12542;PMS3003;6337;49.556;25.594;2023-01-15T22:35:05;38.47;20.92;
12542;PMS3003;6337;49.556;25.594;2023-01-15T22:37:33;42.78;22.75;
12542;PMS3003;6337;49.556;25.594;2023-01-15T22:40:02;36.28;19.48;
12542;PMS3003;6337;49.556;25.594;2023-01-15T22:42:31;40.20;20.83;
12542;PMS3003;6337;49.556;25.594;2023-01-15T22:45:00;33.53;18.33;
12542;PMS3003;6337;49.556;25.594;2023-01-15T22:47:28;30.80;16.38;
12542;PMS3003;6337;49.556;25.594;2023-01-15T22:49:57;28.38;17.30;
12542;PMS3003;6337;49.556;25.594;2023-01-15T22:52:26;43.83;19.88;
12542;PMS3003;6337;49.556;25.594;2023-01-15T22:54:54;33.50;16.55;
12542;PMS3003;6337;49.556;25.594;2023-01-15T22:57:21;35.35;18.40;
12542;PMS3003;6337;49.556;25.594;2023-01-15T22:59:49;41.35;22.40;
12542;PMS3003;6337;49.556;25.594;2023-01-15T23:02:17;31.95;18.85;
12542;PMS3003;6337;49.556;25.594;2023-01-15T23:05:06;42.58;17.77;
12542;PMS3003;6337;49.556;25.594;2023-01-15T23:07:36;42.63;18.88;
12542;PMS3003;6337;49.556;25.594;2023-01-15T23:10:05;35.97;18.80;
12542;PMS3003;6337;49.556;25.594;2023-01-15T23:12:33;44.38;18.05;
12542;PMS3003;6337;49.556;25.594;2023-01-15T23:15:02;28.38;15.20;
12542;PMS3003;6337;49.556;25.594;2023-01-15T23:17:33;31.17;15.25;
12542;PMS3003;6337;49.556;25.594;2023-01-15T23:20:00;32.83;15.70;
12542;PMS3003;6337;49.556;25.594;2023-01-15T23:22:28;36.13;15.95;
12542;PMS3003;6337;49.556;25.594;2023-01-15T23:24:57;34.78;17.30;
12542;PMS3003;6337;49.556;25.594;2023-01-15T23:27:25;38.50;18.45;
12542;PMS3003;6337;49.556;25.594;2023-01-15T23:29:54;47.50;18.63;
12542;PMS3003;6337;49.556;25.594;2023-01-15T23:32:23;42.67;24.90;
12542;PMS3003;6337;49.556;25.594;2023-01-15T23:34:51;36.08;17.52;
12542;PMS3003;6337;49.556;25.594;2023-01-15T23:37:18;42.42;20.60;
12542;PMS3003;6337;49.556;25.594;2023-01-15T23:39:46;47.42;21.52;
12542;PMS3003;6337;49.556;25.594;2023-01-15T23:42:15;43.83;19.08;
12542;PMS3003;6337;49.556;25.594;2023-01-15T23:45:02;44.90;20.75;
12542;PMS3003;6337;49.556;25.594;2023-01-15T23:47:47;40.03;19.30;
12542;PMS3003;6337;49.556;25.594;2023-01-15T23:50:15;51.70;23.42;
12542;PMS3003;6337;49.556;25.594;2023-01-15T23:52:43;41.03;20.20;
12542;PMS3003;6337;49.556;25.594;2023-01-15T23:55:10;39.80;19.05;
12542;PMS3003;6337;49.556;25.594;2023-01-15T23:57:41;46.55;19.83;
